Time;durP1;ratioP1;P1;durP2;ratioP2;P2;SDS_P1;SDS_P2;PMS_P1;PMS_P2;Temp;Humidity;BMP_temperature;BMP_pressure;BME280_temperature;BME280_humidity;BME280_pressure;Samples;Min_cycle;Max_cycle;Signal;HPM_P1;HPM_P2
2022/12/17 13:06:13;;;;;;;77.45;35.63;;;-0.10;99.90;;;;;;5068635;28;21197;-74
2022/12/17 13:08:39;;;;;;;77.85;37.92;;;0.00;99.90;;;;;;5049265;28;20059;-74
2022/12/17 13:11:28;;;;;;;86.22;38.20;;;0.00;99.90;;;;;;5047155;28;20717;-75
2022/12/17 13:14:00;;;;;;;81.63;36.88;;;0.00;99.90;;;;;;5053319;28;20056;-75
2022/12/17 13:16:47;;;;;;;77.13;36.35;;;0.00;99.90;;;;;;5067508;28;20531;-75
2022/12/17 13:19:31;;;;;;;84.40;35.72;;;-0.10;99.90;;;;;;5066274;28;20048;-74
2022/12/17 13:22:30;;;;;;;81.45;36.75;;;0.00;99.90;;;;;;5078385;28;20377;-76
2022/12/17 13:25:15;;;;;;;80.30;35.97;;;0.00;99.90;;;;;;5011313;28;20725;-75
2022/12/17 13:27:42;;;;;;;81.45;37.45;;;0.00;99.90;;;;;;5036896;28;20492;-75
2022/12/17 13:30:20;;;;;;;76.55;36.22;;;0.70;99.90;;;;;;5047243;28;20051;-75
2022/12/17 13:33:19;;;;;;;84.10;38.83;;;0.70;99.90;;;;;;5048027;28;20052;-75
2022/12/17 13:36:09;;;;;;;80.13;36.92;;;0.00;99.90;;;;;;5052458;28;20043;-75
2022/12/17 13:39:00;;;;;;;85.18;36.97;;;0.00;99.90;;;;;;5051179;28;20036;-75
2022/12/17 13:41:31;;;;;;;82.57;38.78;;;0.00;99.90;;;;;;5067596;28;20048;-75
2022/12/17 13:44:39;;;;;;;80.93;37.40;;;0.00;99.90;;;;;;5047087;28;20036;-75
2022/12/17 13:47:05;;;;;;;84.95;38.30;;;0.00;99.90;;;;;;5071972;28;20076;-74
2022/12/17 13:49:33;;;;;;;82.70;37.67;;;0.00;99.90;;;;;;5029606;28;20044;-75
2022/12/17 13:52:13;;;;;;;75.00;35.38;;;0.10;99.90;;;;;;5043574;28;20511;-75
2022/12/17 13:54:39;;;;;;;85.30;38.50;;;0.00;99.90;;;;;;5024239;28;20044;-74
2022/12/17 13:57:08;;;;;;;83.53;38.58;;;0.00;99.90;;;;;;5063891;28;20051;-74
2022/12/17 13:59:34;;;;;;;75.35;35.72;;;0.00;99.90;;;;;;5044064;28;20049;-75
2022/12/17 14:02:00;;;;;;;78.20;37.65;;;0.50;99.90;;;;;;5044509;28;20044;-74
2022/12/17 14:04:28;;;;;;;80.20;38.08;;;0.10;99.90;;;;;;5030618;28;22326;-74
2022/12/17 14:06:57;;;;;;;86.50;39.38;;;0.50;99.90;;;;;;5063267;28;20523;-74
2022/12/17 14:09:33;;;;;;;87.30;40.95;;;0.00;99.90;;;;;;5027275;28;20119;-74
2022/12/17 14:12:21;;;;;;;84.40;39.53;;;-0.10;99.90;;;;;;5081083;28;20066;-75
2022/12/17 14:14:56;;;;;;;85.78;38.05;;;0.50;99.90;;;;;;5067684;28;20385;-73
2022/12/17 14:17:28;;;;;;;85.70;38.47;;;0.00;99.90;;;;;;5084123;28;20040;-75
2022/12/17 14:20:01;;;;;;;80.10;37.97;;;0.00;99.90;;;;;;5049325;28;20505;-74
2022/12/17 14:22:40;;;;;;;84.43;38.97;;;-0.10;99.90;;;;;;5068326;28;20079;-74
2022/12/17 14:25:21;;;;;;;85.45;37.30;;;-0.20;99.90;;;;;;5068174;28;20733;-73
2022/12/17 14:27:59;;;;;;;88.95;39.00;;;-0.20;99.90;;;;;;5081674;28;20040;-74
2022/12/17 14:30:42;;;;;;;85.18;36.53;;;-0.20;99.90;;;;;;5053338;28;20090;-74
2022/12/17 14:33:39;;;;;;;81.50;37.22;;;-0.20;99.90;;;;;;5080812;28;20121;-74
2022/12/17 14:36:22;;;;;;;88.88;39.58;;;-0.20;99.90;;;;;;5054715;28;20090;-74
2022/12/17 14:38:53;;;;;;;82.40;35.28;;;-0.30;99.90;;;;;;5068889;28;20126;-75
2022/12/17 14:44:04;;;;;;;81.82;37.20;;;-0.30;99.90;;;;;;5067409;28;20579;-75
2022/12/17 14:46:32;;;;;;;85.20;38.78;;;-0.30;99.90;;;;;;5069228;28;20075;-75
2022/12/17 14:49:01;;;;;;;79.30;36.28;;;-0.40;99.90;;;;;;5070919;28;20048;-74
2022/12/17 14:51:36;;;;;;;83.85;37.67;;;-0.30;99.90;;;;;;5048214;28;20081;-75
2022/12/17 14:54:12;;;;;;;78.80;36.67;;;-0.40;99.90;;;;;;5061314;28;20135;-74
2022/12/17 14:56:39;;;;;;;86.03;39.30;;;-0.40;99.90;;;;;;5065997;27;20486;-74
2022/12/17 14:59:26;;;;;;;82.50;37.97;;;-0.40;99.90;;;;;;5080362;27;20430;-74
2022/12/17 15:01:53;;;;;;;86.85;38.03;;;0.20;99.90;;;;;;5047224;28;20055;-75
2022/12/17 15:04:20;;;;;;;81.28;36.95;;;-0.40;99.90;;;;;;5083134;28;20453;-75
2022/12/17 15:06:46;;;;;;;84.47;37.30;;;-0.50;99.90;;;;;;5083935;28;20050;-74
2022/12/17 15:09:12;;;;;;;82.05;37.00;;;-0.50;99.90;;;;;;5053662;28;20989;-75
2022/12/17 15:11:38;;;;;;;92.35;39.60;;;-0.50;99.90;;;;;;5086742;28;20530;-74
2022/12/17 15:14:04;;;;;;;90.53;38.40;;;-0.60;99.90;;;;;;5084774;28;20048;-75
2022/12/17 15:16:30;;;;;;;89.30;37.75;;;-0.60;99.90;;;;;;5047912;28;20117;-74
2022/12/17 15:18:56;;;;;;;83.28;36.58;;;-0.10;99.90;;;;;;5051556;28;20042;-73
2022/12/17 15:21:24;;;;;;;84.85;36.30;;;-0.50;99.90;;;;;;5047479;28;20050;-73
2022/12/17 15:23:50;;;;;;;87.93;38.20;;;-0.60;99.90;;;;;;5067796;28;20146;-75
2022/12/17 15:26:16;;;;;;;86.45;36.55;;;-1.00;99.90;;;;;;5070332;28;20054;-75
2022/12/17 15:28:43;;;;;;;85.03;36.78;;;-0.70;99.90;;;;;;5068379;28;20071;-76
2022/12/17 15:31:12;;;;;;;87.85;38.22;;;0.40;99.90;;;;;;5047569;28;20040;-74
2022/12/17 15:33:39;;;;;;;82.88;36.60;;;-0.80;99.90;;;;;;5083985;28;20047;-73
2022/12/17 15:36:08;;;;;;;82.35;36.53;;;-0.20;99.90;;;;;;5048507;28;20075;-73
2022/12/17 15:38:34;;;;;;;85.03;36.15;;;-0.80;99.90;;;;;;5083532;28;20036;-74
2022/12/17 15:43:09;;;;;;;93.47;37.35;;;-0.90;99.90;;;;;;5060314;28;20092;-74
2022/12/17 15:43:48;;;;;;;88.88;36.40;;;-0.60;99.90;;;;;;5058472;28;20051;-75
2022/12/17 15:46:14;;;;;;;86.40;36.83;;;-0.90;99.90;;;;;;5082990;28;20709;-75
2022/12/17 15:48:40;;;;;;;87.38;36.40;;;-0.90;99.90;;;;;;5045582;28;20140;-74
2022/12/17 15:51:06;;;;;;;89.78;36.28;;;-0.80;99.90;;;;;;5058200;28;20051;-75
2022/12/17 15:53:32;;;;;;;87.60;36.97;;;-1.00;99.90;;;;;;5087551;28;20111;-74
2022/12/17 15:56:02;;;;;;;88.82;38.75;;;-1.00;99.90;;;;;;5065712;28;20062;-74
2022/12/17 15:58:29;;;;;;;90.90;39.17;;;-0.80;99.90;;;;;;5063419;28;20475;-74
2022/12/17 16:00:55;;;;;;;93.45;37.90;;;-1.00;99.90;;;;;;5047018;27;20054;-75
2022/12/17 16:03:21;;;;;;;94.93;38.35;;;-1.10;99.90;;;;;;5078710;27;20044;-74
2022/12/17 16:05:47;;;;;;;92.82;37.55;;;-1.10;99.90;;;;;;5055837;28;20598;-74
2022/12/17 16:08:14;;;;;;;92.43;38.35;;;-1.10;99.90;;;;;;5063416;28;20035;-74
2022/12/17 16:10:40;;;;;;;86.53;35.53;;;-1.10;99.90;;;;;;5065732;27;20856;-75
2022/12/17 16:13:06;;;;;;;97.70;36.95;;;-0.70;99.90;;;;;;5073457;28;20127;-75
2022/12/17 16:15:31;;;;;;;93.45;36.30;;;-1.20;99.90;;;;;;5074234;28;20056;-75
2022/12/17 16:17:57;;;;;;;88.57;37.05;;;-1.20;99.90;;;;;;5094891;28;20051;-75
2022/12/17 16:20:23;;;;;;;94.10;37.67;;;-0.30;99.90;;;;;;5073144;28;20040;-74
2022/12/17 16:22:49;;;;;;;84.00;35.78;;;-1.10;99.90;;;;;;5071480;28;20036;-74
2022/12/17 16:25:15;;;;;;;86.00;34.92;;;-1.00;99.90;;;;;;5058345;28;20118;-74
2022/12/17 16:27:42;;;;;;;89.00;35.42;;;-1.30;99.90;;;;;;5054393;28;20104;-74
2022/12/17 16:30:10;;;;;;;85.60;35.05;;;-1.30;99.90;;;;;;5059735;28;20761;-75
2022/12/17 16:32:39;;;;;;;83.38;34.72;;;-1.40;99.90;;;;;;5076603;28;20118;-75
2022/12/17 16:35:05;;;;;;;90.97;34.72;;;-1.30;99.90;;;;;;5075511;28;20054;-74
2022/12/17 16:37:31;;;;;;;89.85;35.50;;;-1.40;99.90;;;;;;5064881;28;20040;-75
2022/12/17 16:39:57;;;;;;;93.10;36.00;;;-1.40;99.90;;;;;;5045416;28;20051;-74
2022/12/17 16:42:23;;;;;;;100.95;36.35;;;-1.50;99.90;;;;;;5052381;27;20575;-75
2022/12/17 16:44:49;;;;;;;85.78;34.35;;;-1.50;99.90;;;;;;5049577;28;20075;-75
2022/12/17 16:47:15;;;;;;;90.93;36.28;;;-1.50;99.90;;;;;;5071216;28;20061;-76
2022/12/17 16:49:40;;;;;;;99.72;38.53;;;-0.50;99.90;;;;;;5078896;28;20077;-75
2022/12/17 16:52:06;;;;;;;87.32;34.25;;;-1.60;99.90;;;;;;5060166;28;20871;-75
2022/12/17 16:54:32;;;;;;;89.40;35.63;;;-1.30;99.90;;;;;;5078761;28;20047;-74
2022/12/17 16:56:59;;;;;;;95.57;35.85;;;-1.60;99.90;;;;;;5060067;28;20704;-75
2022/12/17 16:59:25;;;;;;;84.75;33.25;;;-1.60;99.90;;;;;;5078566;27;20047;-75
2022/12/17 17:01:51;;;;;;;87.90;33.53;;;-2.60;99.90;;;;;;5074694;28;20076;-74
2022/12/17 17:04:20;;;;;;;91.03;34.08;;;-1.60;99.90;;;;;;5070685;28;20044;-75
2022/12/17 17:06:52;;;;;;;95.30;34.83;;;-1.70;99.90;;;;;;5073582;28;20047;-74
2022/12/17 17:09:18;;;;;;;90.03;34.15;;;-1.70;99.90;;;;;;5052740;28;20113;-75
2022/12/17 17:11:45;;;;;;;87.78;33.08;;;-1.30;99.90;;;;;;5074484;28;20066;-74
2022/12/17 17:14:11;;;;;;;87.78;35.00;;;-1.70;99.90;;;;;;5054766;27;20047;-74
2022/12/17 17:16:37;;;;;;;88.30;33.88;;;-1.60;99.90;;;;;;5072710;27;20048;-74
2022/12/17 17:19:04;;;;;;;84.18;33.30;;;-1.70;99.90;;;;;;5087714;27;20075;-74
2022/12/17 17:21:39;;;;;;;83.50;33.40;;;-1.80;99.90;;;;;;5067161;27;20055;-75
2022/12/17 17:24:14;;;;;;;88.07;32.83;;;-1.80;99.90;;;;;;5091346;27;20051;-74
2022/12/17 17:26:40;;;;;;;88.50;34.45;;;-1.80;99.90;;;;;;5094292;27;20036;-74
2022/12/17 17:29:07;;;;;;;87.47;33.67;;;-1.90;99.90;;;;;;5070224;27;20032;-74
2022/12/17 17:31:33;;;;;;;95.60;35.95;;;-1.80;99.90;;;;;;5049434;28;20044;-74
2022/12/17 17:33:59;;;;;;;93.40;34.25;;;-1.90;99.90;;;;;;5073947;28;20031;-74
2022/12/17 17:36:29;;;;;;;86.57;33.83;;;-1.90;99.90;;;;;;5092934;27;20268;-75
2022/12/17 17:38:57;;;;;;;93.90;35.53;;;-1.90;99.90;;;;;;5088621;27;20609;-75
2022/12/17 17:41:26;;;;;;;101.35;35.67;;;-1.90;99.90;;;;;;5048972;28;20043;-75
2022/12/17 17:43:54;;;;;;;102.65;37.70;;;-1.90;99.90;;;;;;5046966;28;20073;-75
2022/12/17 17:46:20;;;;;;;97.75;35.15;;;-1.90;99.90;;;;;;5072115;28;20148;-75
2022/12/17 17:48:47;;;;;;;94.88;34.78;;;-1.90;99.90;;;;;;5060818;27;20089;-75
2022/12/17 17:51:18;;;;;;;97.38;34.80;;;-2.00;99.90;;;;;;5078478;27;20046;-75
2022/12/17 17:53:45;;;;;;;105.40;36.67;;;-2.00;99.90;;;;;;5072998;27;20129;-74
2022/12/17 17:56:15;;;;;;;99.55;35.08;;;-1.70;99.90;;;;;;5088188;28;20599;-74
2022/12/17 17:58:46;;;;;;;93.40;36.10;;;-2.00;99.90;;;;;;5070926;27;20046;-75
2022/12/17 18:01:19;;;;;;;98.93;34.55;;;-2.00;99.90;;;;;;5056975;27;20074;-74
2022/12/17 18:03:45;;;;;;;91.05;33.17;;;-2.00;99.90;;;;;;5065042;27;20081;-74
2022/12/17 18:06:12;;;;;;;90.30;32.45;;;-2.00;99.90;;;;;;5073181;28;20044;-75
2022/12/17 18:08:39;;;;;;;81.22;31.65;;;-1.60;99.90;;;;;;5084440;27;20105;-75
2022/12/17 18:11:07;;;;;;;101.75;32.72;;;-2.10;99.90;;;;;;5083248;27;20224;-74
2022/12/17 18:16:17;;;;;;;92.95;33.15;;;-2.20;99.90;;;;;;5087919;27;20424;-73
2022/12/17 18:18:44;;;;;;;90.50;33.92;;;-2.20;99.90;;;;;;5063635;27;20032;-75
2022/12/17 18:21:13;;;;;;;101.80;35.50;;;-2.20;99.90;;;;;;5071727;28;20042;-75
2022/12/17 18:23:39;;;;;;;102.32;33.03;;;-1.20;99.90;;;;;;5070294;28;20500;-75
2022/12/17 18:26:12;;;;;;;93.97;33.47;;;-2.30;99.90;;;;;;5058708;28;20181;-74
2022/12/17 18:28:39;;;;;;;90.53;32.33;;;-1.30;99.90;;;;;;5074923;27;20051;-74
2022/12/17 18:31:13;;;;;;;94.40;33.35;;;-2.30;99.90;;;;;;5092543;27;20675;-75
2022/12/17 18:33:43;;;;;;;92.35;33.28;;;-2.30;99.90;;;;;;5062363;28;20051;-75
2022/12/17 18:36:11;;;;;;;95.90;34.67;;;-2.30;99.90;;;;;;5056148;28;20074;-75
2022/12/17 18:38:37;;;;;;;95.95;34.05;;;-2.30;99.90;;;;;;5069958;28;20047;-75
2022/12/17 18:43:59;;;;;;;90.13;31.25;;;-2.30;99.90;;;;;;5082373;28;20499;-75
2022/12/17 18:46:26;;;;;;;104.68;33.75;;;-2.00;99.90;;;;;;5069586;28;20044;-75
2022/12/17 18:48:55;;;;;;;89.07;31.88;;;-2.40;99.90;;;;;;5049524;28;20035;-75
2022/12/17 18:51:21;;;;;;;89.35;31.92;;;-1.20;99.90;;;;;;5066481;28;20039;-75
2022/12/17 18:53:48;;;;;;;92.80;31.98;;;-2.40;99.90;;;;;;5048946;28;20054;-75
2022/12/17 18:56:14;;;;;;;87.72;30.85;;;-2.40;99.90;;;;;;5049565;28;20074;-75
2022/12/17 18:58:40;;;;;;;86.15;32.42;;;-1.60;99.90;;;;;;5084618;28;20557;-75
2022/12/17 19:01:06;;;;;;;93.57;33.33;;;-1.80;99.90;;;;;;5049351;28;20052;-75
2022/12/17 19:03:32;;;;;;;86.95;30.90;;;-2.40;99.90;;;;;;5065570;28;20048;-75
2022/12/17 19:06:04;;;;;;;89.20;29.75;;;-2.10;99.90;;;;;;5054133;28;20365;-75
2022/12/17 19:08:33;;;;;;;83.50;30.13;;;-2.50;99.90;;;;;;5073243;27;20597;-75
2022/12/17 19:11:07;;;;;;;95.30;32.40;;;-2.40;99.90;;;;;;5073108;28;20055;-75
2022/12/17 19:13:33;;;;;;;98.18;31.48;;;-2.40;99.90;;;;;;5066023;28;20044;-75
2022/12/17 19:16:19;;;;;;;85.63;30.85;;;-2.50;99.90;;;;;;5051947;28;20059;-75
2022/12/17 19:18:49;;;;;;;92.50;32.08;;;-2.50;99.90;;;;;;5071460;28;20530;-75
2022/12/17 19:21:15;;;;;;;90.88;31.90;;;-2.50;99.90;;;;;;5066956;28;20154;-74
2022/12/17 19:23:41;;;;;;;91.78;31.70;;;-2.10;99.90;;;;;;5061308;28;21948;-75
2022/12/17 19:26:10;;;;;;;87.63;31.40;;;-2.50;99.90;;;;;;5064094;28;20062;-75
2022/12/17 19:28:39;;;;;;;93.40;32.45;;;-2.20;99.90;;;;;;5070414;28;20058;-75
2022/12/17 19:31:05;;;;;;;97.38;35.20;;;-2.40;99.90;;;;;;5091805;27;20106;-75
2022/12/17 19:33:31;;;;;;;98.57;32.13;;;-2.60;99.90;;;;;;5073139;27;20139;-75
2022/12/17 19:36:14;;;;;;;86.50;31.90;;;-2.00;99.90;;;;;;5083677;27;20044;-75
2022/12/17 19:38:40;;;;;;;89.93;34.70;;;-2.60;99.90;;;;;;5070832;28;20073;-74
2022/12/17 19:41:13;;;;;;;92.50;32.35;;;-2.60;99.90;;;;;;5087701;27;20047;-74
2022/12/17 19:43:43;;;;;;;87.22;30.90;;;-1.60;99.90;;;;;;5061443;28;20075;-74
2022/12/17 19:46:12;;;;;;;87.22;30.48;;;-2.60;99.90;;;;;;5057779;27;20215;-75
2022/12/17 19:48:39;;;;;;;96.32;31.20;;;-2.60;99.90;;;;;;5050566;28;20840;-75
2022/12/17 19:51:07;;;;;;;95.10;33.22;;;-1.90;99.90;;;;;;5067070;27;20645;-75
2022/12/17 19:53:34;;;;;;;89.65;31.98;;;-2.70;99.90;;;;;;5081777;27;20043;-75
2022/12/17 19:56:27;;;;;;;95.25;33.05;;;-1.60;99.90;;;;;;5088932;27;20039;-76
2022/12/17 19:58:56;;;;;;;91.13;33.17;;;-2.70;99.90;;;;;;5083231;27;20477;-75
2022/12/17 20:01:24;;;;;;;90.55;32.88;;;-2.70;99.90;;;;;;5071511;27;21901;-75
2022/12/17 20:03:51;;;;;;;92.68;33.13;;;-2.70;99.90;;;;;;5060382;27;20108;-74
2022/12/17 20:06:19;;;;;;;95.07;34.22;;;-2.70;99.90;;;;;;5075539;27;20032;-75
2022/12/17 20:08:45;;;;;;;99.18;33.58;;;-2.70;99.90;;;;;;5068967;27;20039;-76
2022/12/17 20:11:31;;;;;;;90.07;31.83;;;-2.70;99.90;;;;;;5077954;28;20075;-75
2022/12/17 20:14:01;;;;;;;99.45;34.53;;;-1.70;99.90;;;;;;5076290;27;20525;-75
2022/12/17 20:16:28;;;;;;;97.90;34.72;;;-2.70;99.90;;;;;;5091939;27;20130;-75
2022/12/17 20:18:54;;;;;;;97.55;32.88;;;-2.70;99.90;;;;;;5089614;27;20039;-76
2022/12/17 20:21:20;;;;;;;87.80;33.28;;;-2.70;99.90;;;;;;5041090;27;20048;-75
2022/12/17 20:23:50;;;;;;;103.40;36.38;;;-2.70;99.90;;;;;;5067243;27;20104;-75
2022/12/17 20:26:17;;;;;;;86.38;33.00;;;-2.80;99.90;;;;;;5053021;27;20604;-75
2022/12/17 20:28:44;;;;;;;96.47;35.30;;;-2.80;99.90;;;;;;5085473;27;20082;-75
2022/12/17 20:31:13;;;;;;;112.20;40.92;;;-2.80;99.90;;;;;;5085037;27;20832;-75
2022/12/17 20:33:39;;;;;;;92.18;36.88;;;-2.80;99.90;;;;;;5071903;27;20039;-75
2022/12/17 20:36:07;;;;;;;91.32;34.90;;;-2.80;99.90;;;;;;5085163;27;20063;-75
2022/12/17 20:38:33;;;;;;;89.03;34.53;;;-2.80;99.90;;;;;;5069426;27;20040;-77
2022/12/17 20:40:59;;;;;;;94.63;35.22;;;-2.80;99.90;;;;;;5052282;28;20050;-77
2022/12/17 20:43:26;;;;;;;86.70;34.67;;;-2.90;99.90;;;;;;5070040;27;20043;-76
2022/12/17 20:45:54;;;;;;;88.68;34.63;;;-2.90;99.90;;;;;;5067121;28;20059;-78
2022/12/17 20:48:21;;;;;;;91.60;36.60;;;-2.90;99.90;;;;;;5070891;27;20443;-77
2022/12/17 20:50:47;;;;;;;83.13;34.13;;;-2.90;99.90;;;;;;5068425;28;20737;-77
2022/12/17 20:53:13;;;;;;;91.32;34.88;;;-2.90;99.90;;;;;;5068168;28;20044;-77
2022/12/17 20:55:39;;;;;;;97.47;37.05;;;-2.90;99.90;;;;;;5068606;28;20125;-77
2022/12/17 20:58:04;;;;;;;89.13;35.63;;;-2.90;99.90;;;;;;5054196;28;20058;-76
2022/12/17 21:00:30;;;;;;;92.60;36.28;;;-2.40;99.90;;;;;;5066611;28;20920;-77
2022/12/17 21:02:56;;;;;;;97.22;38.25;;;-2.90;99.90;;;;;;5068929;27;20559;-77
2022/12/17 21:05:22;;;;;;;98.15;36.92;;;-2.80;99.90;;;;;;5051517;28;20100;-77
2022/12/17 21:07:49;;;;;;;92.93;36.00;;;-2.90;99.90;;;;;;5049369;28;20031;-77
2022/12/17 21:10:15;;;;;;;99.70;37.53;;;-2.90;99.90;;;;;;5060666;28;20094;-78
2022/12/17 21:15:26;;;;;;;97.53;36.95;;;-2.90;99.90;;;;;;5066909;28;20355;-74
2022/12/17 21:17:52;;;;;;;88.60;36.42;;;-1.70;99.90;;;;;;5067171;28;20484;-75
2022/12/17 21:20:18;;;;;;;94.35;38.20;;;-2.90;99.90;;;;;;5069482;28;20040;-77
2022/12/17 21:22:43;;;;;;;93.88;37.58;;;-2.90;99.90;;;;;;5051748;28;20046;-77
2022/12/17 21:25:09;;;;;;;95.40;37.80;;;-2.90;99.90;;;;;;5047094;28;20439;-77
2022/12/17 21:27:35;;;;;;;88.35;36.25;;;-2.90;99.90;;;;;;5047116;28;20047;-77
2022/12/17 21:30:02;;;;;;;93.05;36.05;;;-2.90;99.90;;;;;;5085796;28;20057;-76
2022/12/17 21:32:28;;;;;;;93.88;36.65;;;-2.90;99.90;;;;;;5066780;28;20067;-76
2022/12/17 21:34:53;;;;;;;89.65;35.95;;;-2.90;99.90;;;;;;5066529;28;20174;-76
2022/12/17 21:37:19;;;;;;;92.93;38.20;;;-2.90;99.90;;;;;;5078711;28;20488;-76
2022/12/17 21:39:45;;;;;;;90.68;35.72;;;-2.90;99.90;;;;;;5070038;28;20199;-76
2022/12/17 21:44:56;;;;;;;94.25;37.50;;;-2.90;99.90;;;;;;5059924;28;20404;-76
2022/12/17 21:47:22;;;;;;;93.97;38.50;;;-3.00;99.90;;;;;;5063369;28;20043;-77
2022/12/17 21:49:48;;;;;;;92.93;35.65;;;-3.00;99.90;;;;;;5059816;28;20101;-76
2022/12/17 21:52:14;;;;;;;95.43;36.00;;;-3.00;99.90;;;;;;5068846;28;20063;-76
2022/12/17 21:54:39;;;;;;;92.05;36.58;;;-3.00;99.90;;;;;;5059704;28;20063;-76
2022/12/17 21:57:06;;;;;;;94.70;37.47;;;-3.00;99.90;;;;;;5060872;28;20051;-76
2022/12/17 21:59:31;;;;;;;96.63;40.00;;;-3.00;99.90;;;;;;5070325;28;20498;-77
2022/12/17 22:01:58;;;;;;;86.65;36.35;;;-3.00;99.90;;;;;;5073957;28;20047;-76
2022/12/17 22:04:25;;;;;;;94.30;36.47;;;-3.00;99.90;;;;;;5058203;28;20661;-77
2022/12/17 22:06:51;;;;;;;98.18;39.25;;;-3.00;99.90;;;;;;5084527;28;20035;-78
2022/12/17 22:09:16;;;;;;;96.75;37.22;;;-3.00;99.90;;;;;;5061507;28;20780;-76
2022/12/17 22:11:42;;;;;;;99.63;37.55;;;-3.00;99.90;;;;;;5060903;28;20056;-77
2022/12/17 22:14:11;;;;;;;105.72;38.80;;;-3.10;99.90;;;;;;5081792;28;20050;-76
2022/12/17 22:16:47;;;;;;;102.90;39.08;;;-3.10;99.90;;;;;;5081652;28;20069;-76
2022/12/17 22:19:24;;;;;;;94.28;36.20;;;-3.10;99.90;;;;;;5094486;28;20035;-76
2022/12/17 22:21:51;;;;;;;89.90;36.40;;;-2.00;99.90;;;;;;5061621;28;20043;-77
2022/12/17 22:24:20;;;;;;;92.57;36.30;;;-2.20;99.90;;;;;;5090547;28;20048;-77
2022/12/17 22:26:46;;;;;;;99.50;38.55;;;-2.50;99.90;;;;;;5075949;28;20051;-77
2022/12/17 22:32:58;;;;;;;92.63;38.25;;;-3.10;99.90;;;;;;5089635;28;20051;-77
2022/12/17 22:34:42;;;;;;;91.88;35.55;;;-3.20;99.90;;;;;;5073856;28;20044;-77
2022/12/17 22:37:08;;;;;;;103.30;37.88;;;-3.20;99.90;;;;;;5072429;28;20099;-77
2022/12/17 22:39:33;;;;;;;104.68;40.03;;;-3.20;99.90;;;;;;5074349;28;20053;-77
2022/12/17 22:44:43;;;;;;;102.40;35.78;;;-3.20;99.90;;;;;;5070738;28;20129;-77
2022/12/17 22:47:09;;;;;;;92.85;35.75;;;-3.20;99.90;;;;;;5098619;28;20032;-77
2022/12/17 22:49:35;;;;;;;104.07;37.22;;;-3.20;99.90;;;;;;5073804;28;20055;-77
2022/12/17 22:52:01;;;;;;;96.70;36.47;;;-2.90;99.90;;;;;;5067497;28;20147;-76
2022/12/17 22:54:27;;;;;;;94.88;35.67;;;-3.20;99.90;;;;;;5058588;28;20123;-78
2022/12/17 22:56:52;;;;;;;98.82;35.90;;;-3.20;99.90;;;;;;5092022;28;20085;-77
2022/12/17 22:59:18;;;;;;;93.05;35.65;;;-3.20;99.90;;;;;;5068302;28;20036;-77
2022/12/17 23:01:45;;;;;;;106.32;37.38;;;-2.90;99.90;;;;;;5074500;28;20040;-77
2022/12/17 23:04:15;;;;;;;102.55;36.28;;;-3.30;99.90;;;;;;5075252;28;20050;-77
2022/12/17 23:06:43;;;;;;;99.38;34.90;;;-3.20;99.90;;;;;;5070158;28;20185;-78
2022/12/17 23:09:10;;;;;;;104.72;35.03;;;-2.90;99.90;;;;;;5058470;28;20066;-77
2022/12/17 23:11:36;;;;;;;99.68;36.25;;;-2.50;99.90;;;;;;5072726;28;20051;-75
2022/12/17 23:14:04;;;;;;;105.47;37.15;;;-3.20;99.90;;;;;;5077696;28;20097;-76
2022/12/17 23:16:30;;;;;;;100.15;35.67;;;-3.30;99.90;;;;;;5068793;28;20040;-77
2022/12/17 23:18:59;;;;;;;100.47;34.85;;;-3.30;99.90;;;;;;5079014;28;20525;-78
2022/12/17 23:21:25;;;;;;;97.85;37.03;;;-2.10;99.90;;;;;;5058235;28;20050;-76
2022/12/17 23:23:52;;;;;;;107.20;36.53;;;-3.30;99.90;;;;;;5079502;28;20075;-77
2022/12/17 23:26:25;;;;;;;108.85;37.53;;;-3.20;99.90;;;;;;5090840;28;20048;-78
2022/12/17 23:29:00;;;;;;;106.65;36.38;;;-3.30;99.90;;;;;;5071359;28;20050;-77
2022/12/17 23:31:30;;;;;;;107.68;36.63;;;-3.30;99.90;;;;;;5054837;28;20378;-77
2022/12/17 23:33:56;;;;;;;99.22;36.88;;;-2.00;99.90;;;;;;5070078;28;20522;-77
2022/12/17 23:36:24;;;;;;;114.72;37.88;;;-3.00;99.90;;;;;;5092871;28;20139;-77
2022/12/17 23:38:51;;;;;;;104.70;36.58;;;-3.30;99.90;;;;;;5071018;28;20044;-77
2022/12/17 23:41:20;;;;;;;102.70;36.85;;;-3.30;99.90;;;;;;5070152;28;20043;-74
2022/12/17 23:43:46;;;;;;;109.55;38.65;;;-3.30;99.90;;;;;;5076245;28;20043;-78
2022/12/17 23:46:13;;;;;;;105.82;35.72;;;-3.30;99.90;;;;;;5071355;28;20052;-78
2022/12/17 23:48:41;;;;;;;104.50;35.35;;;-3.30;99.90;;;;;;5078228;28;20116;-77
2022/12/17 23:51:08;;;;;;;100.10;34.92;;;-3.30;99.90;;;;;;5081926;28;20043;-77
2022/12/17 23:53:36;;;;;;;103.20;35.55;;;-2.30;99.90;;;;;;5094850;28;20460;-77
2022/12/17 23:56:08;;;;;;;110.03;37.38;;;-2.30;99.90;;;;;;5077877;28;20054;-79
2022/12/17 23:58:35;;;;;;;108.55;34.78;;;-3.30;99.90;;;;;;5072251;28;20062;-78
